createdAt,value
2018-05-09T08:11:50.243Z,4632
2018-05-09T08:12:24.941Z,4612
2018-05-09T08:13:03.948Z,4604
2018-05-09T08:13:38.636Z,4596
2018-05-09T08:14:10.976Z,4584
2018-05-09T08:14:42.973Z,4568
2018-05-09T08:15:15.048Z,4560
2018-05-09T08:15:47.119Z,4560
2018-05-09T08:16:19.218Z,4544
2018-05-09T08:16:51.274Z,4548
2018-05-09T08:17:23.391Z,4540
2018-05-09T08:17:55.546Z,4532
2018-05-09T08:18:27.658Z,4512
2018-05-09T08:18:59.804Z,4508
2018-05-09T08:19:31.939Z,4492
2018-05-09T08:20:04.009Z,4484
2018-05-09T08:20:36.129Z,4480
2018-05-09T08:21:09.196Z,4460
2018-05-09T08:21:41.288Z,4460
2018-05-09T08:22:15.353Z,4456
2018-05-09T08:22:49.657Z,4448
2018-05-09T08:23:22.101Z,4436
2018-05-09T08:23:56.959Z,4424
2018-05-09T08:24:30.129Z,4416
2018-05-09T08:25:02.920Z,4396
2018-05-09T08:25:35.541Z,4400
2018-05-09T08:26:07.743Z,4392
2018-05-09T08:26:39.777Z,4384
2018-05-09T08:27:12.259Z,4376
2018-05-09T08:27:44.277Z,4368
2018-05-09T08:28:16.429Z,4360
2018-05-09T08:28:49.504Z,4352
2018-05-09T08:29:21.558Z,4344
2018-05-09T08:29:53.665Z,4340
2018-05-09T08:30:25.891Z,4332
2018-05-09T08:30:57.995Z,4324
2018-05-09T08:31:44.738Z,4316
2018-05-09T08:32:16.819Z,4308
2018-05-09T08:32:48.935Z,4292
2018-05-09T08:33:20.970Z,4292
2018-05-09T08:33:53.313Z,4280
2018-05-09T08:34:25.482Z,4280
2018-05-09T08:34:57.592Z,4268
2018-05-09T08:35:29.803Z,4256
2018-05-09T08:36:02.668Z,4244
2018-05-09T08:36:34.779Z,4232
2018-05-09T08:37:06.918Z,4224
2018-05-09T08:37:39.056Z,4216
2018-05-09T08:38:11.068Z,4212
2018-05-09T08:38:43.095Z,4208
2018-05-09T08:39:15.126Z,4200
2018-05-09T08:39:47.214Z,4192
2018-05-09T08:40:19.254Z,4184
2018-05-09T08:40:51.297Z,4184
2018-05-09T08:41:23.462Z,4172
2018-05-09T08:41:55.509Z,4164
2018-05-09T08:42:27.563Z,4160
2018-05-09T08:43:00.522Z,4152
2018-05-09T08:43:32.806Z,4144
2018-05-09T08:44:05.067Z,4136
2018-05-09T08:44:37.005Z,4132
2018-05-09T08:45:10.243Z,4112
2018-05-09T08:45:43.999Z,4104
2018-05-09T08:46:21.684Z,4100
2018-05-09T08:46:56.773Z,4096
2018-05-09T08:47:34.765Z,4088
2018-05-09T08:48:08.011Z,4084
2018-05-09T08:48:41.849Z,4076
2018-05-09T08:49:15.316Z,4072
2018-05-09T08:49:47.669Z,4060
2018-05-09T08:50:20.875Z,4052
2018-05-09T08:50:53.764Z,4052
2018-05-09T08:51:27.109Z,4044
2018-05-09T08:52:00.040Z,4032
2018-05-09T08:52:33.594Z,4020
2018-05-09T08:53:06.659Z,4012
2018-05-09T08:53:39.847Z,4008
2018-05-09T08:54:13.497Z,4000
2018-05-09T08:54:47.253Z,3984
2018-05-09T08:55:19.288Z,3984
2018-05-09T08:55:51.376Z,3972
2018-05-09T08:56:23.394Z,3960
2018-05-09T08:56:55.480Z,3952
2018-05-09T08:57:30.805Z,3944
2018-05-09T08:58:04.752Z,3932
2018-05-09T08:58:38.167Z,3916
2018-05-09T08:59:10.547Z,3912
2018-05-09T08:59:45.311Z,3904
2018-05-09T09:00:17.656Z,3892
2018-05-09T09:00:50.066Z,3888
2018-05-09T09:01:22.126Z,3880
2018-05-09T09:01:54.244Z,3868
2018-05-09T09:02:26.227Z,3864
2018-05-09T09:02:58.272Z,3860
2018-05-09T09:03:30.335Z,3848
2018-05-09T09:04:02.575Z,3836
2018-05-09T09:04:34.661Z,3832
2018-05-09T09:05:06.890Z,3828
2018-05-09T09:05:39.019Z,3820
2018-05-09T09:06:11.334Z,3812
2018-05-09T09:06:43.388Z,3812
2018-05-09T09:07:15.428Z,3796
2018-05-09T09:07:47.473Z,3784
2018-05-09T09:08:20.000Z,3780
2018-05-09T09:08:52.047Z,3776
2018-05-09T09:09:24.052Z,3768
2018-05-09T09:09:56.105Z,3760
2018-05-09T09:10:28.180Z,3752
2018-05-09T09:11:00.241Z,3748
2018-05-09T09:11:32.290Z,3740
2018-05-09T09:12:04.349Z,3736
2018-05-09T09:12:36.366Z,3736
2018-05-09T09:13:08.521Z,3720
2018-05-09T09:13:40.613Z,3712
2018-05-09T09:14:12.670Z,3704
2018-05-09T09:14:44.852Z,3700
2018-05-09T09:15:17.035Z,3688
2018-05-09T09:15:49.044Z,3684
2018-05-09T09:16:21.036Z,3680
2018-05-09T09:16:53.118Z,3676
2018-05-09T09:17:25.130Z,3660
2018-05-09T09:17:57.166Z,3660
2018-05-09T09:18:29.363Z,3652
2018-05-09T09:19:01.364Z,3644
2018-05-09T09:19:33.455Z,3640
2018-05-09T09:20:05.495Z,3636
2018-05-09T09:20:37.608Z,3628
2018-05-09T09:21:09.771Z,3624
2018-05-09T09:21:41.907Z,3612
2018-05-09T09:22:13.916Z,3612
2018-05-09T09:22:45.946Z,3600
2018-05-09T09:23:17.980Z,3596
2018-05-09T09:23:50.013Z,3588
2018-05-09T09:24:22.028Z,3584
2018-05-09T09:24:54.134Z,3576
2018-05-09T09:25:26.142Z,3572
2018-05-09T09:25:58.163Z,3560
2018-05-09T09:26:30.181Z,3556
2018-05-09T09:27:02.215Z,3556
2018-05-09T09:27:34.265Z,3548
2018-05-09T09:28:06.366Z,3548
2018-05-09T09:28:38.384Z,3536
2018-05-09T09:29:10.548Z,3536
2018-05-09T09:29:42.494Z,3536
2018-05-09T09:30:14.501Z,3528
2018-05-09T09:30:46.508Z,3524
2018-05-09T09:31:18.520Z,3512
2018-05-09T09:31:50.531Z,3508
2018-05-09T09:32:22.591Z,3508
2018-05-09T09:32:54.590Z,3508
2018-05-09T09:33:26.759Z,3508
2018-05-09T09:33:59.174Z,3508
2018-05-09T10:25:48.812Z,3792
2018-05-09T10:26:20.906Z,3800
2018-05-09T10:26:52.999Z,3820
2018-05-09T10:27:25.084Z,3828
2018-05-09T10:27:57.165Z,3828
2018-05-09T10:28:29.236Z,3836
2018-05-09T10:29:01.348Z,3856
2018-05-09T10:29:33.420Z,3868
2018-05-09T10:30:05.508Z,3876
2018-05-09T10:30:37.566Z,3868
2018-05-09T10:31:09.667Z,3868
2018-05-09T10:31:41.782Z,3876
2018-05-09T10:32:13.913Z,3880
2018-05-09T10:32:45.979Z,3888
2018-05-09T10:33:18.037Z,3884
2018-05-09T10:33:50.135Z,3880
2018-05-09T10:34:22.230Z,3880
2018-05-09T10:34:54.308Z,3892
2018-05-09T10:35:26.388Z,3900
2018-05-09T10:35:58.469Z,3912
2018-05-09T10:36:30.585Z,3924
2018-05-09T10:37:02.663Z,3936
2018-05-09T10:37:34.745Z,3960
2018-05-09T10:38:06.850Z,3972
2018-05-09T10:38:38.974Z,3992
2018-05-09T10:40:30.288Z,4016
2018-05-09T10:41:02.392Z,4044
2018-05-09T10:41:34.483Z,4068
2018-05-09T10:42:06.607Z,4072
2018-05-09T10:42:38.741Z,4080
2018-05-09T10:43:12.564Z,4088
2018-05-09T10:43:46.364Z,4108
2018-05-09T10:44:18.947Z,4124
2018-05-09T10:44:51.509Z,4140
2018-05-09T10:45:23.740Z,4152
2018-05-09T10:45:56.728Z,4176
2018-05-09T10:46:30.290Z,4196
2018-05-09T10:47:06.198Z,4228
2018-05-09T10:47:39.172Z,4252
2018-05-09T10:48:11.400Z,4284
2018-05-09T10:50:03.140Z,4328
2018-05-09T10:51:54.579Z,4388
2018-05-09T10:52:26.662Z,4408
2018-05-09T10:52:58.757Z,4412
2018-05-09T10:53:30.859Z,4424
2018-05-09T10:54:02.931Z,4440
2018-05-09T10:54:35.020Z,4476
2018-05-09T10:55:07.105Z,4472
2018-05-09T10:55:39.193Z,4480
2018-05-09T10:56:11.303Z,4484
2018-05-09T10:56:43.463Z,4524
2018-05-09T10:58:35.155Z,4672
2018-05-09T10:59:07.371Z,4736
2018-05-09T11:00:58.805Z,4848
2018-05-09T11:01:30.864Z,4856
2018-05-09T11:02:02.974Z,4848
2018-05-09T11:02:35.039Z,4848
2018-05-09T11:03:07.102Z,4816
2018-05-09T11:03:39.829Z,4824
2018-05-09T11:04:12.149Z,4860
2018-05-09T11:06:03.658Z,4904
2018-05-09T11:06:35.760Z,4916
2018-05-09T11:08:27.571Z,4972
2018-05-09T11:08:59.643Z,5004
2018-05-09T11:09:31.767Z,5016
2018-05-09T11:10:03.846Z,5028
2018-05-09T11:11:55.491Z,5080
2018-05-09T11:12:27.611Z,5140
2018-05-09T11:12:59.696Z,5192
2018-05-09T11:13:31.793Z,5236
2018-05-09T11:14:03.894Z,5248
2018-05-09T11:14:35.998Z,5232
2018-05-09T11:16:27.606Z,5240
2018-05-09T11:16:59.735Z,5264
2018-05-09T11:18:51.320Z,5320
2018-05-09T11:19:23.390Z,5336
2018-05-09T11:19:55.500Z,5344
2018-05-09T11:20:27.591Z,5336
2018-05-09T11:20:59.669Z,5384
2018-05-09T11:22:51.156Z,5460
2018-05-09T11:23:23.228Z,5496
2018-05-09T11:25:14.662Z,5540
2018-05-09T11:25:46.751Z,5568
2018-05-09T11:26:18.837Z,5592
2018-05-09T11:26:50.953Z,5612
2018-05-09T11:27:23.049Z,5636
2018-05-09T11:27:55.128Z,5656
2018-05-09T11:28:27.226Z,5672
2018-05-09T11:28:59.313Z,5676
2018-05-09T11:29:31.454Z,5668
2018-05-09T11:30:03.532Z,5676
2018-05-09T11:30:35.614Z,5720
2018-05-09T11:31:07.681Z,5768
2018-05-09T11:31:39.781Z,5808
2018-05-09T11:32:11.870Z,5872
2018-05-09T11:32:43.959Z,5928
2018-05-09T11:33:16.047Z,5964
2018-05-09T11:33:48.131Z,6004
2018-05-09T11:34:20.209Z,6028
2018-05-09T11:34:52.299Z,6048
2018-05-09T11:35:24.393Z,6048
2018-05-09T11:35:56.517Z,6052
2018-05-09T11:36:30.229Z,6072
2018-05-09T11:37:03.038Z,6080
2018-05-09T11:37:35.142Z,6076
2018-05-09T11:38:07.227Z,6072
2018-05-09T11:38:39.320Z,6100
2018-05-09T11:39:11.427Z,6100
2018-05-09T11:39:43.504Z,6108
2018-05-09T11:40:15.592Z,6124
2018-05-09T11:40:47.686Z,6140
2018-05-09T11:41:19.801Z,6184
2018-05-09T11:41:51.881Z,6196
2018-05-09T11:42:23.979Z,6204
2018-05-09T11:42:56.069Z,6236
2018-05-09T11:43:28.142Z,6260
2018-05-09T11:44:00.211Z,6264
2018-05-09T11:44:32.254Z,6276
2018-05-09T11:45:04.340Z,6336
2018-05-09T11:46:55.842Z,6512
2018-05-09T11:47:27.977Z,6536
2018-05-09T11:48:00.064Z,6532
2018-05-09T11:48:32.181Z,6508
2018-05-09T11:50:23.779Z,6544
2018-05-09T11:50:55.861Z,6580
2018-05-09T11:52:47.594Z,6644
2018-05-09T11:54:39.345Z,6716
2018-05-09T11:55:11.425Z,6724
2018-05-09T11:55:43.479Z,6744
2018-05-09T11:56:15.603Z,6768
2018-05-09T11:56:47.672Z,6788
2018-05-09T11:57:19.768Z,6812
2018-05-09T11:59:11.357Z,6968
2018-05-09T11:59:43.407Z,6980
2018-05-09T12:00:15.499Z,7016
2018-05-09T12:00:47.606Z,7036
2018-05-09T12:01:19.675Z,7060
2018-05-09T12:01:51.734Z,7076
2018-05-09T12:02:23.823Z,7112
2018-05-09T12:04:15.603Z,7240
2018-05-09T12:04:47.685Z,7252
2018-05-09T12:05:19.786Z,7276
2018-05-09T12:05:51.877Z,7308
2018-05-09T12:06:23.965Z,7360
2018-05-09T12:08:15.549Z,7428
2018-05-09T12:08:47.647Z,7440
2018-05-09T12:09:19.763Z,7448
2018-05-09T12:09:51.853Z,7512
2018-05-09T12:10:24.072Z,7532
2018-05-09T12:10:56.185Z,7592
2018-05-09T12:11:28.141Z,7620
2018-05-09T12:13:19.701Z,7688
2018-05-09T12:13:51.796Z,7748
2018-05-09T12:14:23.893Z,7784
2018-05-09T12:16:15.367Z,7980
2018-05-09T12:16:47.474Z,8004
2018-05-09T12:17:19.578Z,8016
2018-05-09T12:17:51.678Z,8096
2018-05-09T12:19:43.375Z,8244
2018-05-09T12:20:15.665Z,8312
2018-05-09T12:20:47.847Z,8396
2018-05-09T12:22:39.375Z,8632
2018-05-09T12:23:11.469Z,8712
2018-05-09T12:23:43.579Z,8788
2018-05-09T12:24:15.673Z,8832
2018-05-09T12:24:47.753Z,8864
2018-05-09T12:25:19.855Z,8928
2018-05-09T12:25:51.971Z,9004
2018-05-09T12:26:24.081Z,9052
2018-05-09T12:26:56.158Z,9112
2018-05-09T12:27:28.256Z,9188
2018-05-09T12:28:02.365Z,9224
2018-05-09T12:28:34.524Z,9292
2018-05-09T12:29:06.636Z,9356
2018-05-09T12:30:58.486Z,9544
2018-05-09T12:31:30.602Z,9584
2018-05-09T12:32:03.283Z,9620
2018-05-09T12:32:35.364Z,9672
2018-05-09T12:33:07.468Z,9768
2018-05-09T12:33:39.573Z,9888
2018-05-09T12:34:11.680Z,10032
2018-05-09T12:36:03.056Z,10320
2018-05-09T12:36:35.141Z,10444
2018-05-09T12:37:07.237Z,10572
2018-05-09T12:37:39.350Z,10692
2018-05-09T12:40:50.390Z,11424
2018-05-09T12:41:22.490Z,11516
2018-05-09T12:41:54.600Z,11636
2018-05-09T12:42:26.701Z,11728
2018-05-09T12:42:58.796Z,11804
2018-05-09T12:43:30.919Z,11920
2018-05-09T12:44:03.062Z,12012
2018-05-09T12:44:35.162Z,12080
2018-05-09T12:45:07.264Z,12276
2018-05-09T12:45:39.373Z,12364
2018-05-09T12:46:11.429Z,12412
2018-05-09T12:46:43.539Z,12488
2018-05-09T12:47:15.635Z,12536
2018-05-09T12:47:47.756Z,12732
2018-05-09T12:49:39.401Z,13224
2018-05-09T12:50:11.457Z,13324
2018-05-09T12:50:43.544Z,13492
2018-05-09T12:51:15.632Z,13620
2018-05-09T12:51:47.715Z,13736
2018-05-09T12:53:39.405Z,14408
2018-05-09T12:54:11.509Z,14552
2018-05-09T12:54:43.613Z,14580
2018-05-09T12:56:35.234Z,14976
2018-05-09T12:57:07.344Z,15024
2018-05-09T12:57:39.439Z,15104
2018-05-09T12:58:11.548Z,15132
2018-05-09T12:58:43.649Z,15284
2018-05-09T12:59:15.771Z,15476
2018-05-09T13:01:07.918Z,15884
2018-05-09T13:02:59.421Z,16428
2018-05-09T13:03:31.520Z,16684
2018-05-09T13:04:03.611Z,16816
2018-05-09T13:04:35.748Z,16996
2018-05-09T13:05:07.888Z,17336
2018-05-09T13:05:40.199Z,16836
2018-05-09T13:07:31.932Z,17568
2018-05-09T13:08:04.286Z,17760
2018-05-09T13:08:37.191Z,17404
2018-05-09T13:09:09.271Z,18080
2018-05-09T13:09:41.528Z,18816
2018-05-09T13:10:13.658Z,19200
2018-05-09T13:10:45.788Z,19424
2018-05-09T13:11:17.882Z,19872
2018-05-09T13:11:50.077Z,20160
2018-05-09T13:12:22.172Z,20448
2018-05-09T13:12:54.283Z,20480
2018-05-09T13:13:26.388Z,20704
2018-05-09T13:13:58.566Z,20768
2018-05-09T13:14:30.658Z,20960
2018-05-09T13:15:02.750Z,20992
2018-05-09T13:15:34.858Z,21408
2018-05-09T13:16:06.939Z,19936
2018-05-09T13:16:39.025Z,21312
2018-05-09T13:17:11.119Z,21504
2018-05-09T13:19:02.624Z,21760
2018-05-09T13:19:34.715Z,21952
2018-05-09T13:20:06.823Z,21920
2018-05-09T13:20:38.995Z,21760
2018-05-09T13:21:12.803Z,21792
2018-05-09T13:21:45.054Z,22368
2018-05-09T13:22:17.129Z,22208
2018-05-09T13:22:49.217Z,22464
2018-05-09T13:23:21.335Z,22496
2018-05-09T13:23:53.623Z,22656
2018-05-09T13:24:25.919Z,22848
2018-05-09T13:24:58.004Z,23040
2018-05-09T13:25:30.056Z,22912
2018-05-09T13:26:02.160Z,23104
2018-05-09T13:26:34.296Z,23200
2018-05-09T13:29:45.358Z,24416
2018-05-09T13:31:36.824Z,24896
2018-05-09T13:32:08.890Z,24928
2018-05-09T13:32:40.984Z,24960
2018-05-09T13:33:13.157Z,23424
2018-05-09T13:33:45.248Z,25408
2018-05-09T13:34:17.340Z,25152
2018-05-09T13:34:49.438Z,25536
2018-05-09T13:35:21.616Z,25504
2018-05-09T13:35:53.925Z,25440
2018-05-09T13:36:26.039Z,25312
2018-05-09T13:36:58.181Z,25664
2018-05-09T13:37:30.292Z,25632
2018-05-09T13:38:02.466Z,25440
2018-05-09T13:39:53.820Z,24992
2018-05-09T13:43:04.957Z,25248
2018-05-09T13:43:37.072Z,25600
2018-05-09T13:45:28.873Z,25440
2018-05-09T13:47:20.462Z,24928
2018-05-09T13:47:52.561Z,24768
2018-05-09T13:48:24.671Z,24672
2018-05-09T13:48:56.745Z,24320
2018-05-09T13:49:28.844Z,23840
2018-05-09T13:50:00.943Z,24032
2018-05-09T13:50:33.050Z,23968
2018-05-09T13:51:05.157Z,23680
2018-05-09T13:51:37.247Z,23872
2018-05-09T13:52:09.357Z,22976
2018-05-09T13:52:41.455Z,24640
2018-05-09T13:53:13.577Z,24384
2018-05-09T13:53:45.693Z,21984
2018-05-09T13:54:17.775Z,9740
2018-05-09T13:54:49.858Z,6704
2018-05-09T13:55:21.959Z,5852
2018-05-09T13:55:54.057Z,5508
2018-05-09T13:56:26.151Z,5776
2018-05-09T13:56:58.930Z,5904
2018-05-09T13:57:32.031Z,19232
2018-05-09T13:58:04.093Z,21536
2018-05-09T13:58:36.194Z,22880
2018-05-09T13:59:08.293Z,15548
2018-05-09T13:59:40.396Z,24928
2018-05-09T14:00:12.505Z,8804
2018-05-09T14:00:44.593Z,6100
2018-05-09T14:02:35.971Z,23872
2018-05-09T14:03:08.045Z,23840
2018-05-09T14:03:40.130Z,23488
2018-05-09T14:04:12.216Z,23424
2018-05-09T14:04:44.332Z,23392
2018-05-09T14:06:35.903Z,22688
2018-05-09T14:07:07.982Z,22880
2018-05-09T14:07:40.075Z,22848
2018-05-09T14:08:12.157Z,22496
2018-05-09T14:10:03.659Z,22240
2018-05-09T14:11:55.410Z,21728
2018-05-09T14:12:27.524Z,21664
2018-05-09T14:12:59.617Z,21440
2018-05-09T14:13:31.720Z,21376
2018-05-09T14:14:03.821Z,21120
2018-05-09T14:14:35.916Z,20960
2018-05-09T14:15:08.012Z,20896
2018-05-09T14:15:40.559Z,21056
2018-05-09T14:16:12.602Z,19712
2018-05-09T14:16:44.684Z,6576
2018-05-09T14:17:16.783Z,21760
2018-05-09T14:17:48.895Z,20992
2018-05-09T14:18:20.992Z,20832
2018-05-09T14:20:12.752Z,21312
2018-05-09T14:20:44.890Z,21472
2018-05-09T14:21:17.009Z,21728
2018-05-09T14:21:49.121Z,22208
2018-05-09T14:22:21.240Z,23200
2018-05-09T14:22:53.336Z,26432
2018-05-09T14:23:25.442Z,29984
2018-05-09T14:23:57.546Z,33792
2018-05-09T14:24:29.638Z,33824
2018-05-09T14:25:01.738Z,40544
2018-05-09T14:25:33.857Z,43968
2018-05-09T14:26:05.936Z,33120
2018-05-09T14:26:38.047Z,43136
2018-05-09T14:27:10.216Z,52672
2018-05-09T14:27:42.255Z,58176
2018-05-09T14:28:14.358Z,57376
2018-05-09T14:30:05.684Z,61024
2018-05-09T14:30:37.775Z,60992
2018-05-09T14:32:29.183Z,62080
2018-05-09T14:33:01.288Z,61344
2018-05-09T14:33:33.395Z,62176
2018-05-09T14:34:05.495Z,61056
2018-05-09T14:34:37.587Z,59488
2018-05-09T14:35:09.668Z,57952
2018-05-09T14:35:41.749Z,56992
2018-05-09T14:36:13.856Z,56064
2018-05-09T14:36:45.958Z,56160
2018-05-09T14:37:18.042Z,55424
2018-05-09T14:37:50.140Z,55456
2018-05-09T14:38:22.260Z,55776
2018-05-09T14:41:33.351Z,54176
2018-05-09T14:42:05.432Z,53632
2018-05-09T14:42:37.579Z,55200
2018-05-09T14:43:09.671Z,54208
2018-05-09T14:43:42.650Z,53216
2018-05-09T14:44:19.444Z,53728
2018-05-09T14:44:52.912Z,53568
2018-05-09T14:45:25.106Z,53664
2018-05-09T14:45:57.272Z,52608
2018-05-09T14:46:29.348Z,52032
2018-05-09T14:47:01.447Z,50880
2018-05-09T14:47:33.561Z,49568
2018-05-09T14:48:05.681Z,47968
2018-05-09T14:48:37.861Z,47808
2018-05-09T14:50:29.419Z,48160
2018-05-09T14:51:01.670Z,47616
2018-05-09T14:51:33.357Z,45056
2018-05-09T14:52:05.498Z,44000
2018-05-09T14:52:37.730Z,46208
2018-05-09T14:53:09.846Z,7900
2018-05-09T14:53:42.071Z,6816
2018-05-09T14:55:33.883Z,44128
2018-05-09T14:56:05.981Z,35840
2018-05-09T14:56:38.069Z,36416
2018-05-09T14:57:10.175Z,11840
2018-05-09T14:57:42.250Z,7064
2018-05-09T14:59:33.876Z,17092
2018-05-09T15:00:05.987Z,20320
2018-05-09T15:00:38.091Z,7632
2018-05-09T15:01:10.181Z,8508
2018-05-09T15:01:42.295Z,24896
2018-05-09T15:02:14.374Z,42432
2018-05-09T15:02:46.464Z,41728
2018-05-09T15:03:18.570Z,40928
2018-05-09T15:05:09.950Z,43456
2018-05-09T15:05:42.031Z,43744
2018-05-09T15:07:33.777Z,43520
2018-05-09T15:08:05.846Z,42752
2018-05-09T15:08:37.980Z,42560
2018-05-09T15:09:10.047Z,42176
2018-05-09T15:09:42.148Z,42432
2018-05-09T15:10:14.241Z,42688
2018-05-09T15:10:46.317Z,42016
2018-05-09T15:11:18.412Z,41216
2018-05-09T15:13:09.897Z,41120
2018-05-09T15:13:42.005Z,40544
2018-05-09T15:14:14.103Z,39392
2018-05-09T15:16:05.887Z,35776
2018-05-09T15:16:37.949Z,36384
2018-05-09T15:17:10.036Z,36512
2018-05-09T15:17:42.128Z,36096
2018-05-09T15:18:14.228Z,35680
2018-05-09T15:18:46.326Z,35712
2018-05-09T15:19:18.425Z,35872
2018-05-09T15:22:29.465Z,33280
2018-05-09T15:23:01.567Z,32640
2018-05-09T15:23:33.665Z,32256
2018-05-09T15:24:05.772Z,32960
2018-05-09T15:24:37.870Z,33152
2018-05-09T15:25:09.971Z,33344
2018-05-09T15:27:01.746Z,31168
2018-05-09T15:27:33.846Z,26016
2018-05-09T15:28:05.953Z,11228
2018-05-09T15:28:38.051Z,16496
2018-05-09T15:29:10.141Z,26592
2018-05-09T15:29:42.248Z,24480
2018-05-09T15:30:14.348Z,10964
2018-05-09T15:30:46.498Z,4988
2018-05-09T15:31:18.536Z,7112
2018-05-09T15:33:10.066Z,19104
2018-05-09T15:33:42.171Z,17140
2018-05-09T15:34:14.257Z,22528
2018-05-09T15:36:05.828Z,7420
2018-05-09T15:36:37.933Z,5944
2018-05-09T15:37:10.039Z,7288
2018-05-09T15:37:42.143Z,7112
2018-05-09T15:39:33.757Z,6468
2018-05-09T15:40:05.854Z,6328
2018-05-09T15:40:37.961Z,6212
2018-05-09T15:41:10.074Z,6084
2018-05-09T15:41:42.156Z,5952
2018-05-09T15:42:14.244Z,5804
2018-05-09T15:42:46.354Z,5648
2018-05-09T15:43:18.460Z,5504
2018-05-09T15:43:54.420Z,5372
2018-05-09T15:45:46.078Z,4896
2018-05-09T15:47:37.779Z,4488
2018-05-09T15:48:09.868Z,4544
2018-05-09T15:48:41.984Z,4588
2018-05-09T15:49:14.083Z,4576
2018-05-09T15:49:46.172Z,4564
2018-05-09T15:50:18.411Z,4568
2018-05-09T15:50:50.494Z,4544
2018-05-09T15:51:22.590Z,4448
2018-05-09T15:51:54.672Z,4136
2018-05-09T15:52:26.773Z,3964
2018-05-09T15:52:58.871Z,4024
2018-05-09T15:53:30.961Z,3612
2018-05-09T15:54:03.083Z,3496
2018-05-09T15:55:54.582Z,3092
2018-05-09T15:57:46.091Z,2884
2018-05-09T15:58:18.183Z,2788
2018-05-09T16:00:09.778Z,2288
2018-05-09T16:00:41.937Z,2184
2018-05-09T16:01:13.984Z,2152
2018-05-09T16:01:46.085Z,2164
2018-05-09T16:02:18.191Z,2180
2018-05-09T16:02:50.257Z,2212
2018-05-09T16:03:22.360Z,2272
2018-05-09T16:03:54.447Z,2368
2018-05-09T16:04:26.541Z,2340
2018-05-09T16:04:58.641Z,2396
2018-05-09T16:05:30.745Z,2444
2018-05-09T16:06:02.860Z,2476
2018-05-09T16:06:34.959Z,2492
2018-05-09T16:08:26.591Z,2532
2018-05-09T16:08:58.695Z,2544
2018-05-09T16:09:30.802Z,2548
2018-05-09T16:10:02.894Z,2548
2018-05-09T16:10:35.120Z,2548
2018-05-09T16:11:07.110Z,2568
2018-05-09T16:11:39.218Z,2596
2018-05-09T16:12:11.323Z,2636
2018-05-09T16:12:43.431Z,2704
2018-05-09T16:13:15.533Z,2776
2018-05-09T16:13:47.640Z,2836
2018-05-09T16:14:19.746Z,2892
2018-05-09T16:16:11.522Z,3124
2018-05-09T16:16:43.627Z,3124
2018-05-09T16:17:15.730Z,2980
2018-05-09T16:17:47.799Z,2964
2018-05-09T16:18:19.914Z,2980
2018-05-09T16:18:52.009Z,2968
2018-05-09T16:19:24.102Z,3008
2018-05-09T16:19:56.192Z,2940
2018-05-09T16:20:28.293Z,2792
2018-05-09T16:22:20.006Z,2820
2018-05-09T16:22:52.039Z,2872
2018-05-09T16:23:24.108Z,2924
2018-05-09T16:23:56.190Z,2972
2018-05-09T16:24:28.291Z,3012
2018-05-09T16:25:00.385Z,3036
2018-05-09T16:26:51.791Z,3160
2018-05-09T16:27:23.896Z,3220
2018-05-09T16:27:55.988Z,3312
2018-05-09T16:28:28.084Z,3336
2018-05-09T16:29:00.173Z,3316
2018-05-09T16:29:32.269Z,3248
2018-05-09T16:30:04.350Z,3208
2018-05-09T16:30:36.429Z,3156
2018-05-09T16:31:08.521Z,3080
2018-05-09T16:31:40.639Z,3012
2018-05-09T16:32:12.724Z,2952
2018-05-09T16:32:44.820Z,2908
2018-05-09T16:34:36.374Z,2660
2018-05-09T16:35:08.469Z,2584
2018-05-09T16:35:40.572Z,2520
2018-05-09T16:36:12.710Z,2456
2018-05-09T16:38:04.124Z,2152
2018-05-09T16:38:36.229Z,2096
2018-05-09T16:40:27.807Z,1944
2018-05-09T16:40:59.914Z,1908
2018-05-09T16:42:51.395Z,1776
2018-05-09T16:44:43.133Z,1640
2018-05-09T16:45:15.224Z,1612
2018-05-09T16:45:47.317Z,1588
2018-05-09T16:46:19.400Z,1556
2018-05-09T16:46:51.481Z,1524
2018-05-09T16:47:23.574Z,1476
2018-05-09T16:47:55.680Z,1424
2018-05-09T16:48:27.757Z,1368
2018-05-09T16:48:59.842Z,1324
2018-05-09T16:50:51.390Z,1224
2018-05-09T16:52:43.054Z,1204
2018-05-09T16:53:15.158Z,1208
2018-05-09T16:53:47.263Z,1216
2018-05-09T16:54:19.385Z,1220
2018-05-09T16:54:51.479Z,1224
2018-05-09T16:55:23.563Z,1224
2018-05-09T16:57:14.967Z,1240
2018-05-09T16:57:47.053Z,1232
2018-05-09T16:58:19.160Z,1240
2018-05-09T16:58:51.247Z,1252
2018-05-09T16:59:23.365Z,1268
2018-05-09T16:59:55.462Z,1272
2018-05-09T17:00:27.549Z,1280
2018-05-09T17:00:59.640Z,1288
2018-05-09T17:01:31.762Z,1304
2018-05-09T17:03:23.416Z,1356
2018-05-09T17:05:15.145Z,1372
2018-05-09T17:05:47.255Z,1368
2018-05-09T17:06:19.350Z,1364
2018-05-09T17:06:51.449Z,1356
2018-05-09T17:07:23.617Z,1348
2018-05-09T17:07:55.636Z,1340
2018-05-09T17:08:27.724Z,1332
2018-05-09T17:08:59.811Z,1328
2018-05-09T17:09:31.897Z,1328
2018-05-09T17:10:03.992Z,1328
2018-05-09T17:10:36.089Z,1332
2018-05-09T17:11:08.181Z,1336
2018-05-09T17:11:40.285Z,1336
2018-05-09T17:12:12.362Z,1336
2018-05-09T17:12:44.450Z,1336
2018-05-09T17:13:16.555Z,1328
2018-05-09T17:13:48.644Z,1328
2018-05-09T17:14:20.743Z,1328
2018-05-09T17:14:52.860Z,1324
2018-05-09T17:15:24.962Z,1328
2018-05-09T17:17:16.322Z,1324
2018-05-09T17:17:48.422Z,1324
2018-05-09T17:18:20.522Z,1320
2018-05-09T17:18:52.625Z,1320
2018-05-09T17:19:24.713Z,1316
2018-05-09T17:19:56.825Z,1312
2018-05-09T17:20:28.936Z,1304
2018-05-09T17:21:01.044Z,1300
2018-05-09T17:21:33.116Z,1296
2018-05-09T17:22:05.188Z,1288
2018-05-09T17:22:37.277Z,1284
2018-05-09T17:23:09.401Z,1276
2018-05-09T17:23:41.476Z,1268
2018-05-09T17:24:13.547Z,1264
2018-05-09T17:24:45.668Z,1264
2018-05-09T17:25:17.762Z,1264
2018-05-09T17:28:28.939Z,1208
2018-05-09T17:29:01.038Z,1200
2018-05-09T17:29:33.146Z,1196
2018-05-09T17:31:24.937Z,1156
2018-05-09T17:33:16.665Z,1128
2018-05-09T17:33:48.765Z,1112
2018-05-09T17:34:20.864Z,1092
2018-05-09T17:34:52.954Z,1080
2018-05-09T17:35:25.049Z,1072
2018-05-09T17:37:16.669Z,1032
2018-05-09T17:37:48.746Z,1024
2018-05-09T17:38:20.850Z,1012
2018-05-09T17:38:52.958Z,1004
2018-05-09T17:39:25.045Z,1000
2018-05-09T17:39:57.144Z,992
2018-05-09T17:40:29.211Z,988
2018-05-09T17:41:01.289Z,984
2018-05-09T17:41:33.504Z,980
2018-05-09T17:42:05.488Z,976
2018-05-09T17:42:37.628Z,972
2018-05-09T17:43:09.669Z,964
2018-05-09T17:43:41.775Z,960
2018-05-09T17:44:13.872Z,956
2018-05-09T17:44:45.965Z,952
2018-05-09T17:45:18.051Z,944
2018-05-09T17:45:50.138Z,940
2018-05-09T17:46:22.259Z,936
2018-05-09T17:46:54.371Z,928
2018-05-09T17:47:26.458Z,924
2018-05-09T17:47:58.542Z,920
2018-05-09T17:48:30.643Z,916
2018-05-09T17:49:02.728Z,912
2018-05-09T17:49:34.843Z,908
2018-05-09T17:50:06.935Z,900
2018-05-09T17:50:39.015Z,892
2018-05-09T17:51:11.100Z,880
2018-05-09T17:51:43.189Z,872
2018-05-09T17:52:15.290Z,868
2018-05-09T17:52:47.403Z,860
2018-05-09T17:53:19.495Z,848
2018-05-09T17:53:51.600Z,840
2018-05-09T17:54:23.691Z,836
2018-05-09T17:54:55.795Z,828
2018-05-09T17:55:27.902Z,820
2018-05-09T17:55:59.990Z,816
2018-05-09T17:56:32.097Z,812
2018-05-09T17:57:04.209Z,804
2018-05-09T17:57:36.288Z,800
2018-05-09T17:58:08.384Z,792
2018-05-09T17:58:40.534Z,784
2018-05-09T17:59:12.572Z,776
2018-05-09T17:59:44.668Z,768
2018-05-09T18:00:16.743Z,760
2018-05-09T18:00:48.809Z,752
2018-05-09T18:01:20.910Z,744
2018-05-09T18:01:53.011Z,740
2018-05-09T18:02:25.121Z,728
2018-05-09T18:02:57.218Z,720
2018-05-09T18:03:29.308Z,716
2018-05-09T18:04:01.451Z,708
2018-05-09T18:04:33.503Z,696
2018-05-09T18:05:05.578Z,684
2018-05-09T18:05:37.670Z,680
2018-05-09T18:06:09.778Z,668
2018-05-09T18:06:41.875Z,656